sensor_id;sensor_type;location;lat;lon;timestamp;P1;durP1;ratioP1;P2;durP2;ratioP2
64875;SDS011;51369;49.862;9.908;2023-07-31T00:00:12;5.68;;;1.67;;
64875;SDS011;51369;49.862;9.908;2023-07-31T00:02:37;6.38;;;2.08;;
64875;SDS011;51369;49.862;9.908;2023-07-31T00:05:03;4.80;;;2.10;;
64875;SDS011;51369;49.862;9.908;2023-07-31T00:07:28;5.72;;;2.15;;
64875;SDS011;51369;49.862;9.908;2023-07-31T00:09:54;4.40;;;1.75;;
64875;SDS011;51369;49.862;9.908;2023-07-31T00:12:19;2.80;;;1.50;;
64875;SDS011;51369;49.862;9.908;2023-07-31T00:14:45;6.07;;;1.83;;
64875;SDS011;51369;49.862;9.908;2023-07-31T00:17:11;4.80;;;1.73;;
64875;SDS011;51369;49.862;9.908;2023-07-31T00:19:37;5.72;;;2.25;;
64875;SDS011;51369;49.862;9.908;2023-07-31T00:22:03;7.28;;;1.88;;
64875;SDS011;51369;49.862;9.908;2023-07-31T00:24:28;4.70;;;1.63;;
64875;SDS011;51369;49.862;9.908;2023-07-31T00:26:54;4.82;;;1.92;;
64875;SDS011;51369;49.862;9.908;2023-07-31T00:29:20;3.03;;;1.80;;
64875;SDS011;51369;49.862;9.908;2023-07-31T00:31:45;4.20;;;1.90;;
64875;SDS011;51369;49.862;9.908;2023-07-31T00:34:10;6.70;;;1.85;;
64875;SDS011;51369;49.862;9.908;2023-07-31T00:36:36;2.83;;;1.77;;
64875;SDS011;51369;49.862;9.908;2023-07-31T00:39:01;5.18;;;1.90;;
64875;SDS011;51369;49.862;9.908;2023-07-31T00:41:26;5.22;;;1.85;;
64875;SDS011;51369;49.862;9.908;2023-07-31T00:43:52;4.05;;;1.98;;
64875;SDS011;51369;49.862;9.908;2023-07-31T00:46:17;3.40;;;1.95;;
64875;SDS011;51369;49.862;9.908;2023-07-31T00:48:43;5.00;;;1.70;;
64875;SDS011;51369;49.862;9.908;2023-07-31T00:51:08;5.45;;;1.90;;
64875;SDS011;51369;49.862;9.908;2023-07-31T00:53:34;7.05;;;1.70;;
64875;SDS011;51369;49.862;9.908;2023-07-31T00:56:01;6.03;;;2.13;;
64875;SDS011;51369;49.862;9.908;2023-07-31T00:58:27;6.07;;;2.58;;
64875;SDS011;51369;49.862;9.908;2023-07-31T01:00:52;6.30;;;1.85;;
64875;SDS011;51369;49.862;9.908;2023-07-31T01:03:18;3.83;;;1.85;;
64875;SDS011;51369;49.862;9.908;2023-07-31T01:05:56;3.15;;;1.73;;
64875;SDS011;51369;49.862;9.908;2023-07-31T01:11:25;12.85;;;2.15;;
64875;SDS011;51369;49.862;9.908;2023-07-31T01:13:56;5.65;;;2.00;;
64875;SDS011;51369;49.862;9.908;2023-07-31T01:16:22;4.90;;;2.00;;
64875;SDS011;51369;49.862;9.908;2023-07-31T01:18:48;5.72;;;2.05;;
64875;SDS011;51369;49.862;9.908;2023-07-31T01:24:15;4.88;;;1.90;;
64875;SDS011;51369;49.862;9.908;2023-07-31T01:26:47;5.70;;;1.80;;
64875;SDS011;51369;49.862;9.908;2023-07-31T01:29:26;5.53;;;2.08;;
64875;SDS011;51369;49.862;9.908;2023-07-31T01:32:01;5.93;;;2.00;;
64875;SDS011;51369;49.862;9.908;2023-07-31T01:34:28;7.57;;;1.67;;
64875;SDS011;51369;49.862;9.908;2023-07-31T01:36:55;6.22;;;2.03;;
64875;SDS011;51369;49.862;9.908;2023-07-31T01:39:22;3.45;;;1.52;;
64875;SDS011;51369;49.862;9.908;2023-07-31T01:41:47;6.32;;;2.00;;
64875;SDS011;51369;49.862;9.908;2023-07-31T01:44:13;5.82;;;2.25;;
64875;SDS011;51369;49.862;9.908;2023-07-31T01:46:38;5.03;;;1.98;;
64875;SDS011;51369;49.862;9.908;2023-07-31T01:49:03;5.72;;;1.90;;
64875;SDS011;51369;49.862;9.908;2023-07-31T01:51:30;9.05;;;1.90;;
64875;SDS011;51369;49.862;9.908;2023-07-31T01:53:59;3.63;;;1.95;;
64875;SDS011;51369;49.862;9.908;2023-07-31T01:56:25;5.32;;;1.92;;
64875;SDS011;51369;49.862;9.908;2023-07-31T01:58:50;6.63;;;2.20;;
64875;SDS011;51369;49.862;9.908;2023-07-31T02:01:16;4.47;;;1.90;;
64875;SDS011;51369;49.862;9.908;2023-07-31T02:03:41;9.18;;;2.05;;
64875;SDS011;51369;49.862;9.908;2023-07-31T02:06:07;7.93;;;1.98;;
64875;SDS011;51369;49.862;9.908;2023-07-31T02:08:33;4.35;;;1.90;;
64875;SDS011;51369;49.862;9.908;2023-07-31T02:10:59;5.72;;;2.40;;
64875;SDS011;51369;49.862;9.908;2023-07-31T02:13:24;7.70;;;2.60;;
64875;SDS011;51369;49.862;9.908;2023-07-31T02:15:50;8.07;;;2.15;;
64875;SDS011;51369;49.862;9.908;2023-07-31T02:18:16;9.45;;;2.22;;
64875;SDS011;51369;49.862;9.908;2023-07-31T02:20:41;8.73;;;2.10;;
64875;SDS011;51369;49.862;9.908;2023-07-31T02:23:07;10.63;;;2.10;;
64875;SDS011;51369;49.862;9.908;2023-07-31T02:25:32;7.72;;;2.03;;
64875;SDS011;51369;49.862;9.908;2023-07-31T02:27:58;5.75;;;2.10;;
64875;SDS011;51369;49.862;9.908;2023-07-31T02:30:23;7.65;;;2.25;;
64875;SDS011;51369;49.862;9.908;2023-07-31T02:32:49;7.78;;;2.40;;
64875;SDS011;51369;49.862;9.908;2023-07-31T02:35:15;3.55;;;2.25;;
64875;SDS011;51369;49.862;9.908;2023-07-31T02:37:41;5.00;;;2.08;;
64875;SDS011;51369;49.862;9.908;2023-07-31T02:40:07;6.07;;;2.00;;
64875;SDS011;51369;49.862;9.908;2023-07-31T02:42:33;5.38;;;1.75;;
64875;SDS011;51369;49.862;9.908;2023-07-31T02:44:58;7.00;;;2.20;;
64875;SDS011;51369;49.862;9.908;2023-07-31T02:47:24;5.82;;;1.98;;
64875;SDS011;51369;49.862;9.908;2023-07-31T02:49:49;9.50;;;2.08;;
64875;SDS011;51369;49.862;9.908;2023-07-31T02:52:16;5.68;;;2.00;;
64875;SDS011;51369;49.862;9.908;2023-07-31T02:54:41;4.30;;;1.88;;
64875;SDS011;51369;49.862;9.908;2023-07-31T02:57:07;6.95;;;2.55;;
64875;SDS011;51369;49.862;9.908;2023-07-31T02:59:32;6.63;;;1.90;;
64875;SDS011;51369;49.862;9.908;2023-07-31T03:01:57;6.95;;;2.22;;
64875;SDS011;51369;49.862;9.908;2023-07-31T03:04:24;6.38;;;2.05;;
64875;SDS011;51369;49.862;9.908;2023-07-31T03:06:50;8.98;;;2.92;;
64875;SDS011;51369;49.862;9.908;2023-07-31T03:09:16;4.07;;;1.73;;
64875;SDS011;51369;49.862;9.908;2023-07-31T03:11:41;7.45;;;2.35;;
64875;SDS011;51369;49.862;9.908;2023-07-31T03:14:06;7.97;;;2.35;;
64875;SDS011;51369;49.862;9.908;2023-07-31T03:16:32;5.95;;;2.25;;
64875;SDS011;51369;49.862;9.908;2023-07-31T03:18:57;5.90;;;2.20;;
64875;SDS011;51369;49.862;9.908;2023-07-31T03:21:23;6.22;;;2.25;;
64875;SDS011;51369;49.862;9.908;2023-07-31T03:23:48;7.55;;;2.17;;
64875;SDS011;51369;49.862;9.908;2023-07-31T03:26:13;9.40;;;2.33;;
64875;SDS011;51369;49.862;9.908;2023-07-31T03:28:39;6.68;;;2.13;;
64875;SDS011;51369;49.862;9.908;2023-07-31T03:31:04;4.10;;;2.10;;
64875;SDS011;51369;49.862;9.908;2023-07-31T03:33:30;4.53;;;2.45;;
64875;SDS011;51369;49.862;9.908;2023-07-31T03:35:56;8.15;;;2.28;;
64875;SDS011;51369;49.862;9.908;2023-07-31T03:38:22;8.25;;;2.33;;
64875;SDS011;51369;49.862;9.908;2023-07-31T03:40:47;14.68;;;2.42;;
64875;SDS011;51369;49.862;9.908;2023-07-31T03:43:13;6.43;;;2.45;;
64875;SDS011;51369;49.862;9.908;2023-07-31T03:45:38;6.13;;;2.88;;
64875;SDS011;51369;49.862;9.908;2023-07-31T03:48:04;6.30;;;2.40;;
64875;SDS011;51369;49.862;9.908;2023-07-31T03:50:30;5.82;;;2.40;;
64875;SDS011;51369;49.862;9.908;2023-07-31T03:52:55;8.10;;;2.83;;
64875;SDS011;51369;49.862;9.908;2023-07-31T03:55:21;7.07;;;2.40;;
64875;SDS011;51369;49.862;9.908;2023-07-31T03:57:47;4.80;;;2.55;;
64875;SDS011;51369;49.862;9.908;2023-07-31T04:00:13;7.25;;;2.30;;
64875;SDS011;51369;49.862;9.908;2023-07-31T04:02:40;4.00;;;2.30;;
64875;SDS011;51369;49.862;9.908;2023-07-31T04:05:06;8.05;;;2.08;;
64875;SDS011;51369;49.862;9.908;2023-07-31T04:07:32;6.20;;;2.10;;
64875;SDS011;51369;49.862;9.908;2023-07-31T04:09:58;4.88;;;2.42;;
64875;SDS011;51369;49.862;9.908;2023-07-31T04:12:23;4.18;;;2.25;;
64875;SDS011;51369;49.862;9.908;2023-07-31T04:14:49;6.53;;;2.25;;
64875;SDS011;51369;49.862;9.908;2023-07-31T04:17:15;6.43;;;2.47;;
64875;SDS011;51369;49.862;9.908;2023-07-31T04:19:40;4.00;;;1.95;;
64875;SDS011;51369;49.862;9.908;2023-07-31T04:22:05;11.07;;;2.33;;
64875;SDS011;51369;49.862;9.908;2023-07-31T04:24:31;7.50;;;2.00;;
64875;SDS011;51369;49.862;9.908;2023-07-31T04:26:56;5.07;;;2.30;;
64875;SDS011;51369;49.862;9.908;2023-07-31T04:29:21;6.22;;;2.47;;
64875;SDS011;51369;49.862;9.908;2023-07-31T04:31:47;5.70;;;2.53;;
64875;SDS011;51369;49.862;9.908;2023-07-31T04:34:13;6.35;;;2.45;;
64875;SDS011;51369;49.862;9.908;2023-07-31T04:36:38;10.98;;;2.22;;
64875;SDS011;51369;49.862;9.908;2023-07-31T04:39:04;6.57;;;2.50;;
64875;SDS011;51369;49.862;9.908;2023-07-31T04:41:29;6.28;;;2.58;;
64875;SDS011;51369;49.862;9.908;2023-07-31T04:43:55;6.03;;;2.17;;
64875;SDS011;51369;49.862;9.908;2023-07-31T04:46:20;5.97;;;2.53;;
64875;SDS011;51369;49.862;9.908;2023-07-31T04:48:45;7.63;;;2.13;;
64875;SDS011;51369;49.862;9.908;2023-07-31T04:51:11;5.20;;;2.30;;
64875;SDS011;51369;49.862;9.908;2023-07-31T04:53:37;5.65;;;2.95;;
64875;SDS011;51369;49.862;9.908;2023-07-31T04:56:02;14.52;;;2.92;;
64875;SDS011;51369;49.862;9.908;2023-07-31T04:58:28;9.80;;;2.42;;
64875;SDS011;51369;49.862;9.908;2023-07-31T05:00:53;5.70;;;2.97;;
64875;SDS011;51369;49.862;9.908;2023-07-31T05:03:19;7.88;;;2.40;;
64875;SDS011;51369;49.862;9.908;2023-07-31T05:05:44;6.85;;;2.53;;
64875;SDS011;51369;49.862;9.908;2023-07-31T05:08:10;5.25;;;2.47;;
64875;SDS011;51369;49.862;9.908;2023-07-31T05:10:35;11.30;;;2.55;;
64875;SDS011;51369;49.862;9.908;2023-07-31T05:13:00;5.03;;;2.60;;
64875;SDS011;51369;49.862;9.908;2023-07-31T05:15:26;6.03;;;2.75;;
64875;SDS011;51369;49.862;9.908;2023-07-31T05:17:51;6.63;;;2.70;;
64875;SDS011;51369;49.862;9.908;2023-07-31T05:20:16;5.80;;;2.55;;
64875;SDS011;51369;49.862;9.908;2023-07-31T05:22:42;9.07;;;2.75;;
64875;SDS011;51369;49.862;9.908;2023-07-31T05:25:08;5.60;;;2.45;;
64875;SDS011;51369;49.862;9.908;2023-07-31T05:27:33;7.97;;;2.40;;
64875;SDS011;51369;49.862;9.908;2023-07-31T05:29:58;10.23;;;2.92;;
64875;SDS011;51369;49.862;9.908;2023-07-31T05:32:24;6.53;;;2.88;;
64875;SDS011;51369;49.862;9.908;2023-07-31T05:34:52;7.00;;;2.55;;
64875;SDS011;51369;49.862;9.908;2023-07-31T05:37:18;6.38;;;2.63;;
64875;SDS011;51369;49.862;9.908;2023-07-31T05:39:44;6.90;;;2.42;;
64875;SDS011;51369;49.862;9.908;2023-07-31T05:42:09;7.43;;;2.88;;
64875;SDS011;51369;49.862;9.908;2023-07-31T05:44:34;5.28;;;2.25;;
64875;SDS011;51369;49.862;9.908;2023-07-31T05:47:00;5.55;;;2.38;;
64875;SDS011;51369;49.862;9.908;2023-07-31T05:49:25;5.90;;;2.70;;
64875;SDS011;51369;49.862;9.908;2023-07-31T05:51:50;6.05;;;2.72;;
64875;SDS011;51369;49.862;9.908;2023-07-31T05:54:16;7.93;;;2.63;;
64875;SDS011;51369;49.862;9.908;2023-07-31T05:56:41;6.53;;;2.78;;
64875;SDS011;51369;49.862;9.908;2023-07-31T05:59:08;7.35;;;2.67;;
64875;SDS011;51369;49.862;9.908;2023-07-31T06:01:34;5.13;;;2.83;;
64875;SDS011;51369;49.862;9.908;2023-07-31T06:03:59;8.35;;;2.55;;
64875;SDS011;51369;49.862;9.908;2023-07-31T06:06:24;5.78;;;2.50;;
64875;SDS011;51369;49.862;9.908;2023-07-31T06:08:50;4.95;;;2.00;;
64875;SDS011;51369;49.862;9.908;2023-07-31T06:11:16;4.30;;;2.35;;
64875;SDS011;51369;49.862;9.908;2023-07-31T06:13:41;4.93;;;2.30;;
64875;SDS011;51369;49.862;9.908;2023-07-31T06:16:07;7.50;;;2.30;;
64875;SDS011;51369;49.862;9.908;2023-07-31T06:18:32;6.85;;;2.83;;
64875;SDS011;51369;49.862;9.908;2023-07-31T06:20:58;6.15;;;2.35;;
64875;SDS011;51369;49.862;9.908;2023-07-31T06:23:23;10.20;;;3.17;;
64875;SDS011;51369;49.862;9.908;2023-07-31T06:25:49;5.80;;;2.25;;
64875;SDS011;51369;49.862;9.908;2023-07-31T06:28:14;5.13;;;2.67;;
64875;SDS011;51369;49.862;9.908;2023-07-31T06:30:39;4.88;;;2.20;;
64875;SDS011;51369;49.862;9.908;2023-07-31T06:33:05;6.57;;;2.47;;
64875;SDS011;51369;49.862;9.908;2023-07-31T06:35:30;8.05;;;2.30;;
64875;SDS011;51369;49.862;9.908;2023-07-31T06:37:55;7.00;;;2.70;;
64875;SDS011;51369;49.862;9.908;2023-07-31T06:40:21;6.20;;;2.33;;
64875;SDS011;51369;49.862;9.908;2023-07-31T06:42:47;5.57;;;2.30;;
64875;SDS011;51369;49.862;9.908;2023-07-31T06:45:13;4.53;;;2.30;;
64875;SDS011;51369;49.862;9.908;2023-07-31T06:47:38;5.80;;;2.47;;
64875;SDS011;51369;49.862;9.908;2023-07-31T06:50:04;4.40;;;2.35;;
64875;SDS011;51369;49.862;9.908;2023-07-31T06:52:30;6.18;;;2.50;;
64875;SDS011;51369;49.862;9.908;2023-07-31T06:55:02;6.72;;;2.63;;
64875;SDS011;51369;49.862;9.908;2023-07-31T06:57:40;5.88;;;3.08;;
64875;SDS011;51369;49.862;9.908;2023-07-31T07:00:05;6.43;;;2.50;;
64875;SDS011;51369;49.862;9.908;2023-07-31T07:02:31;5.13;;;2.47;;
64875;SDS011;51369;49.862;9.908;2023-07-31T07:04:57;6.20;;;2.60;;
64875;SDS011;51369;49.862;9.908;2023-07-31T07:07:22;7.43;;;2.95;;
64875;SDS011;51369;49.862;9.908;2023-07-31T07:09:48;9.50;;;2.90;;
64875;SDS011;51369;49.862;9.908;2023-07-31T07:12:13;8.40;;;3.40;;
64875;SDS011;51369;49.862;9.908;2023-07-31T07:14:38;6.38;;;2.92;;
64875;SDS011;51369;49.862;9.908;2023-07-31T07:17:04;4.40;;;2.30;;
64875;SDS011;51369;49.862;9.908;2023-07-31T07:19:30;9.18;;;2.58;;
64875;SDS011;51369;49.862;9.908;2023-07-31T07:21:55;6.43;;;3.00;;
64875;SDS011;51369;49.862;9.908;2023-07-31T07:24:21;11.02;;;2.80;;
64875;SDS011;51369;49.862;9.908;2023-07-31T07:26:46;10.65;;;3.50;;
64875;SDS011;51369;49.862;9.908;2023-07-31T07:29:12;5.68;;;2.63;;
64875;SDS011;51369;49.862;9.908;2023-07-31T07:31:37;6.00;;;2.65;;
64875;SDS011;51369;49.862;9.908;2023-07-31T07:34:02;6.07;;;2.80;;
64875;SDS011;51369;49.862;9.908;2023-07-31T07:36:28;8.25;;;3.00;;
64875;SDS011;51369;49.862;9.908;2023-07-31T07:38:54;6.63;;;2.42;;
64875;SDS011;51369;49.862;9.908;2023-07-31T07:41:19;8.25;;;2.83;;
64875;SDS011;51369;49.862;9.908;2023-07-31T07:43:45;6.90;;;2.70;;
64875;SDS011;51369;49.862;9.908;2023-07-31T07:46:10;7.47;;;2.67;;
64875;SDS011;51369;49.862;9.908;2023-07-31T07:48:36;6.20;;;2.78;;
64875;SDS011;51369;49.862;9.908;2023-07-31T07:51:01;6.97;;;2.75;;
64875;SDS011;51369;49.862;9.908;2023-07-31T07:53:26;5.15;;;2.65;;
64875;SDS011;51369;49.862;9.908;2023-07-31T07:55:52;8.00;;;2.88;;
64875;SDS011;51369;49.862;9.908;2023-07-31T07:58:17;4.85;;;2.63;;
64875;SDS011;51369;49.862;9.908;2023-07-31T08:00:48;8.30;;;2.72;;
64875;SDS011;51369;49.862;9.908;2023-07-31T08:03:14;5.72;;;2.85;;
64875;SDS011;51369;49.862;9.908;2023-07-31T08:05:39;7.05;;;2.72;;
64875;SDS011;51369;49.862;9.908;2023-07-31T08:08:05;8.20;;;2.92;;
64875;SDS011;51369;49.862;9.908;2023-07-31T08:10:30;5.63;;;2.58;;
64875;SDS011;51369;49.862;9.908;2023-07-31T08:12:56;9.40;;;2.92;;
64875;SDS011;51369;49.862;9.908;2023-07-31T08:15:21;10.85;;;2.70;;
64875;SDS011;51369;49.862;9.908;2023-07-31T08:17:46;6.07;;;2.38;;
64875;SDS011;51369;49.862;9.908;2023-07-31T08:20:12;5.30;;;2.70;;
64875;SDS011;51369;49.862;9.908;2023-07-31T08:22:37;7.88;;;2.83;;
64875;SDS011;51369;49.862;9.908;2023-07-31T08:25:03;8.13;;;2.97;;
64875;SDS011;51369;49.862;9.908;2023-07-31T08:27:28;10.93;;;3.05;;
64875;SDS011;51369;49.862;9.908;2023-07-31T08:29:54;6.15;;;2.60;;
64875;SDS011;51369;49.862;9.908;2023-07-31T08:32:19;6.38;;;2.70;;
64875;SDS011;51369;49.862;9.908;2023-07-31T08:34:45;6.90;;;2.67;;
64875;SDS011;51369;49.862;9.908;2023-07-31T08:37:10;8.10;;;2.63;;
64875;SDS011;51369;49.862;9.908;2023-07-31T08:39:36;6.95;;;2.58;;
64875;SDS011;51369;49.862;9.908;2023-07-31T08:42:07;4.35;;;2.70;;
64875;SDS011;51369;49.862;9.908;2023-07-31T08:44:33;7.78;;;2.55;;
64875;SDS011;51369;49.862;9.908;2023-07-31T08:46:59;6.28;;;2.20;;
64875;SDS011;51369;49.862;9.908;2023-07-31T08:49:25;6.63;;;2.95;;
64875;SDS011;51369;49.862;9.908;2023-07-31T08:51:52;6.63;;;2.90;;
64875;SDS011;51369;49.862;9.908;2023-07-31T08:54:18;4.47;;;3.33;;
64875;SDS011;51369;49.862;9.908;2023-07-31T08:56:43;5.55;;;3.05;;
64875;SDS011;51369;49.862;9.908;2023-07-31T08:59:09;7.60;;;3.25;;
64875;SDS011;51369;49.862;9.908;2023-07-31T09:01:39;12.18;;;2.83;;
64875;SDS011;51369;49.862;9.908;2023-07-31T09:04:09;7.25;;;3.25;;
64875;SDS011;51369;49.862;9.908;2023-07-31T09:06:35;7.60;;;3.15;;
64875;SDS011;51369;49.862;9.908;2023-07-31T09:09:02;9.63;;;3.05;;
64875;SDS011;51369;49.862;9.908;2023-07-31T09:11:28;7.70;;;2.92;;
64875;SDS011;51369;49.862;9.908;2023-07-31T09:13:54;3.90;;;2.55;;
64875;SDS011;51369;49.862;9.908;2023-07-31T09:16:29;5.57;;;2.80;;
64875;SDS011;51369;49.862;9.908;2023-07-31T09:18:56;4.72;;;2.38;;
64875;SDS011;51369;49.862;9.908;2023-07-31T09:21:23;5.63;;;3.33;;
64875;SDS011;51369;49.862;9.908;2023-07-31T09:23:50;8.77;;;3.72;;
64875;SDS011;51369;49.862;9.908;2023-07-31T09:26:34;8.80;;;3.25;;
64875;SDS011;51369;49.862;9.908;2023-07-31T09:29:01;10.38;;;3.22;;
64875;SDS011;51369;49.862;9.908;2023-07-31T09:31:39;5.35;;;2.83;;
64875;SDS011;51369;49.862;9.908;2023-07-31T09:34:06;7.10;;;2.83;;
64875;SDS011;51369;49.862;9.908;2023-07-31T09:36:32;6.28;;;3.10;;
64875;SDS011;51369;49.862;9.908;2023-07-31T09:39:03;8.80;;;3.47;;
64875;SDS011;51369;49.862;9.908;2023-07-31T09:43:55;7.53;;;3.08;;
64875;SDS011;51369;49.862;9.908;2023-07-31T09:46:21;6.47;;;2.95;;
64875;SDS011;51369;49.862;9.908;2023-07-31T09:49:05;6.70;;;2.90;;
64875;SDS011;51369;49.862;9.908;2023-07-31T09:51:35;7.22;;;3.13;;
64875;SDS011;51369;49.862;9.908;2023-07-31T09:54:13;6.13;;;2.95;;
64875;SDS011;51369;49.862;9.908;2023-07-31T09:56:43;5.47;;;2.75;;
64875;SDS011;51369;49.862;9.908;2023-07-31T10:02:58;7.10;;;3.38;;
64875;SDS011;51369;49.862;9.908;2023-07-31T10:05:28;6.32;;;2.80;;
64875;SDS011;51369;49.862;9.908;2023-07-31T10:07:56;11.13;;;2.97;;
64875;SDS011;51369;49.862;9.908;2023-07-31T10:10:22;7.75;;;3.08;;
64875;SDS011;51369;49.862;9.908;2023-07-31T10:12:48;6.43;;;2.70;;
64875;SDS011;51369;49.862;9.908;2023-07-31T10:15:17;4.63;;;2.78;;
64875;SDS011;51369;49.862;9.908;2023-07-31T10:17:44;6.00;;;2.58;;
64875;SDS011;51369;49.862;9.908;2023-07-31T10:20:11;6.38;;;2.80;;
64875;SDS011;51369;49.862;9.908;2023-07-31T10:22:37;7.80;;;2.97;;
64875;SDS011;51369;49.862;9.908;2023-07-31T10:25:04;6.00;;;3.08;;
64875;SDS011;51369;49.862;9.908;2023-07-31T10:27:33;6.65;;;2.85;;
64875;SDS011;51369;49.862;9.908;2023-07-31T10:30:00;5.93;;;2.90;;
64875;SDS011;51369;49.862;9.908;2023-07-31T10:32:28;5.80;;;2.80;;
64875;SDS011;51369;49.862;9.908;2023-07-31T10:34:54;6.47;;;3.38;;
64875;SDS011;51369;49.862;9.908;2023-07-31T10:37:39;6.50;;;3.00;;
64875;SDS011;51369;49.862;9.908;2023-07-31T10:40:12;6.80;;;2.85;;
64875;SDS011;51369;49.862;9.908;2023-07-31T10:42:47;7.88;;;3.17;;
64875;SDS011;51369;49.862;9.908;2023-07-31T10:48:00;5.75;;;3.00;;
64875;SDS011;51369;49.862;9.908;2023-07-31T10:50:28;7.45;;;2.83;;
64875;SDS011;51369;49.862;9.908;2023-07-31T10:52:56;4.85;;;2.88;;
64875;SDS011;51369;49.862;9.908;2023-07-31T10:55:42;4.97;;;2.80;;
64875;SDS011;51369;49.862;9.908;2023-07-31T10:58:09;8.20;;;2.97;;
64875;SDS011;51369;49.862;9.908;2023-07-31T11:00:37;5.45;;;3.38;;
64875;SDS011;51369;49.862;9.908;2023-07-31T11:08:29;7.30;;;2.90;;
64875;SDS011;51369;49.862;9.908;2023-07-31T11:13:27;9.07;;;3.03;;
64875;SDS011;51369;49.862;9.908;2023-07-31T11:16:05;3.60;;;2.60;;
64875;SDS011;51369;49.862;9.908;2023-07-31T11:18:30;6.38;;;3.45;;
64875;SDS011;51369;49.862;9.908;2023-07-31T11:20:55;6.20;;;3.53;;
64875;SDS011;51369;49.862;9.908;2023-07-31T11:23:21;6.05;;;3.03;;
64875;SDS011;51369;49.862;9.908;2023-07-31T11:25:48;7.65;;;3.38;;
64875;SDS011;51369;49.862;9.908;2023-07-31T11:28:15;7.88;;;3.83;;
64875;SDS011;51369;49.862;9.908;2023-07-31T11:30:41;6.55;;;3.13;;
64875;SDS011;51369;49.862;9.908;2023-07-31T11:33:08;9.48;;;3.30;;
64875;SDS011;51369;49.862;9.908;2023-07-31T11:35:36;6.07;;;3.00;;
64875;SDS011;51369;49.862;9.908;2023-07-31T11:38:07;6.18;;;3.20;;
64875;SDS011;51369;49.862;9.908;2023-07-31T11:40:40;6.13;;;3.10;;
64875;SDS011;51369;49.862;9.908;2023-07-31T11:43:07;7.78;;;2.90;;
64875;SDS011;51369;49.862;9.908;2023-07-31T11:45:32;7.45;;;2.85;;
64875;SDS011;51369;49.862;9.908;2023-07-31T11:48:00;7.57;;;3.45;;
64875;SDS011;51369;49.862;9.908;2023-07-31T11:50:26;5.18;;;2.85;;
64875;SDS011;51369;49.862;9.908;2023-07-31T11:52:53;9.27;;;3.50;;
64875;SDS011;51369;49.862;9.908;2023-07-31T11:55:22;7.23;;;3.47;;
64875;SDS011;51369;49.862;9.908;2023-07-31T11:57:48;5.95;;;2.90;;
64875;SDS011;51369;49.862;9.908;2023-07-31T12:00:15;7.28;;;3.22;;
64875;SDS011;51369;49.862;9.908;2023-07-31T12:02:42;6.88;;;3.70;;
64875;SDS011;51369;49.862;9.908;2023-07-31T12:05:11;6.75;;;3.40;;
64875;SDS011;51369;49.862;9.908;2023-07-31T12:07:51;8.15;;;3.30;;
64875;SDS011;51369;49.862;9.908;2023-07-31T12:10:24;6.65;;;3.33;;
64875;SDS011;51369;49.862;9.908;2023-07-31T12:15:34;5.72;;;3.50;;
64875;SDS011;51369;49.862;9.908;2023-07-31T12:18:23;5.75;;;3.67;;
64875;SDS011;51369;49.862;9.908;2023-07-31T12:21:08;7.68;;;3.20;;
64875;SDS011;51369;49.862;9.908;2023-07-31T12:23:36;6.78;;;3.20;;
64875;SDS011;51369;49.862;9.908;2023-07-31T12:26:06;6.15;;;3.33;;
64875;SDS011;51369;49.862;9.908;2023-07-31T12:28:50;7.57;;;3.50;;
64875;SDS011;51369;49.862;9.908;2023-07-31T12:31:19;5.20;;;3.50;;
64875;SDS011;51369;49.862;9.908;2023-07-31T12:33:47;8.30;;;3.50;;
64875;SDS011;51369;49.862;9.908;2023-07-31T12:36:18;8.38;;;3.42;;
64875;SDS011;51369;49.862;9.908;2023-07-31T12:38:46;7.90;;;3.65;;
64875;SDS011;51369;49.862;9.908;2023-07-31T12:41:11;5.05;;;2.88;;
64875;SDS011;51369;49.862;9.908;2023-07-31T12:43:38;9.35;;;3.13;;
64875;SDS011;51369;49.862;9.908;2023-07-31T12:46:05;6.20;;;3.30;;
64875;SDS011;51369;49.862;9.908;2023-07-31T12:48:32;7.75;;;3.70;;
64875;SDS011;51369;49.862;9.908;2023-07-31T12:50:58;6.90;;;3.50;;
64875;SDS011;51369;49.862;9.908;2023-07-31T12:53:23;5.53;;;3.00;;
64875;SDS011;51369;49.862;9.908;2023-07-31T12:55:48;8.00;;;3.88;;
64875;SDS011;51369;49.862;9.908;2023-07-31T12:58:15;8.38;;;3.38;;
64875;SDS011;51369;49.862;9.908;2023-07-31T13:00:41;9.23;;;3.22;;
64875;SDS011;51369;49.862;9.908;2023-07-31T13:03:06;8.52;;;3.83;;
64875;SDS011;51369;49.862;9.908;2023-07-31T13:05:31;6.32;;;3.63;;
64875;SDS011;51369;49.862;9.908;2023-07-31T13:07:57;5.57;;;3.33;;
64875;SDS011;51369;49.862;9.908;2023-07-31T13:10:23;9.15;;;3.67;;
64875;SDS011;51369;49.862;9.908;2023-07-31T13:12:48;9.00;;;3.08;;
64875;SDS011;51369;49.862;9.908;2023-07-31T13:15:14;7.60;;;3.42;;
64875;SDS011;51369;49.862;9.908;2023-07-31T13:17:40;9.27;;;4.22;;
64875;SDS011;51369;49.862;9.908;2023-07-31T13:20:06;10.40;;;4.00;;
64875;SDS011;51369;49.862;9.908;2023-07-31T13:22:32;7.07;;;3.60;;
64875;SDS011;51369;49.862;9.908;2023-07-31T13:24:58;7.03;;;3.58;;
64875;SDS011;51369;49.862;9.908;2023-07-31T13:27:23;10.45;;;3.60;;
64875;SDS011;51369;49.862;9.908;2023-07-31T13:29:49;5.65;;;3.38;;
64875;SDS011;51369;49.862;9.908;2023-07-31T13:32:15;5.35;;;3.22;;
64875;SDS011;51369;49.862;9.908;2023-07-31T13:34:41;8.70;;;3.58;;
64875;SDS011;51369;49.862;9.908;2023-07-31T13:37:07;7.40;;;3.72;;
64875;SDS011;51369;49.862;9.908;2023-07-31T13:39:33;7.22;;;3.67;;
64875;SDS011;51369;49.862;9.908;2023-07-31T13:41:59;7.93;;;3.22;;
64875;SDS011;51369;49.862;9.908;2023-07-31T13:44:24;7.25;;;3.33;;
64875;SDS011;51369;49.862;9.908;2023-07-31T13:46:50;9.73;;;4.10;;
64875;SDS011;51369;49.862;9.908;2023-07-31T13:49:16;9.93;;;3.80;;
64875;SDS011;51369;49.862;9.908;2023-07-31T13:51:41;9.18;;;3.42;;
64875;SDS011;51369;49.862;9.908;2023-07-31T13:54:06;7.43;;;3.08;;
64875;SDS011;51369;49.862;9.908;2023-07-31T13:56:32;5.90;;;3.50;;
64875;SDS011;51369;49.862;9.908;2023-07-31T13:58:57;6.35;;;3.03;;
64875;SDS011;51369;49.862;9.908;2023-07-31T14:01:23;6.15;;;3.70;;
64875;SDS011;51369;49.862;9.908;2023-07-31T14:03:49;10.10;;;3.88;;
64875;SDS011;51369;49.862;9.908;2023-07-31T14:06:14;11.07;;;3.42;;
64875;SDS011;51369;49.862;9.908;2023-07-31T14:08:40;7.45;;;3.70;;
64875;SDS011;51369;49.862;9.908;2023-07-31T14:11:05;6.65;;;3.75;;
64875;SDS011;51369;49.862;9.908;2023-07-31T14:13:30;10.45;;;3.67;;
64875;SDS011;51369;49.862;9.908;2023-07-31T14:15:56;5.07;;;3.17;;
64875;SDS011;51369;49.862;9.908;2023-07-31T14:18:21;8.52;;;4.07;;
64875;SDS011;51369;49.862;9.908;2023-07-31T14:20:46;6.70;;;3.50;;
64875;SDS011;51369;49.862;9.908;2023-07-31T14:23:12;7.38;;;3.60;;
64875;SDS011;51369;49.862;9.908;2023-07-31T14:25:37;5.43;;;3.60;;
64875;SDS011;51369;49.862;9.908;2023-07-31T14:28:02;9.32;;;3.60;;
64875;SDS011;51369;49.862;9.908;2023-07-31T14:30:28;8.93;;;3.28;;
64875;SDS011;51369;49.862;9.908;2023-07-31T14:32:54;8.27;;;4.32;;
64875;SDS011;51369;49.862;9.908;2023-07-31T14:35:19;6.93;;;3.55;;
64875;SDS011;51369;49.862;9.908;2023-07-31T14:37:44;7.28;;;3.35;;
64875;SDS011;51369;49.862;9.908;2023-07-31T14:40:11;8.95;;;3.65;;
64875;SDS011;51369;49.862;9.908;2023-07-31T14:42:38;6.97;;;3.60;;
64875;SDS011;51369;49.862;9.908;2023-07-31T14:45:05;5.45;;;2.97;;
64875;SDS011;51369;49.862;9.908;2023-07-31T14:47:31;9.38;;;3.53;;
64875;SDS011;51369;49.862;9.908;2023-07-31T14:49:58;8.23;;;3.70;;
64875;SDS011;51369;49.862;9.908;2023-07-31T14:52:24;6.90;;;3.35;;
64875;SDS011;51369;49.862;9.908;2023-07-31T14:54:49;8.65;;;3.42;;
64875;SDS011;51369;49.862;9.908;2023-07-31T14:57:15;6.60;;;3.63;;
64875;SDS011;51369;49.862;9.908;2023-07-31T14:59:40;8.93;;;3.22;;
64875;SDS011;51369;49.862;9.908;2023-07-31T15:02:06;5.25;;;3.67;;
64875;SDS011;51369;49.862;9.908;2023-07-31T15:04:33;7.93;;;3.60;;
64875;SDS011;51369;49.862;9.908;2023-07-31T15:06:58;7.93;;;3.30;;
64875;SDS011;51369;49.862;9.908;2023-07-31T15:09:24;8.98;;;4.03;;